createdAt,value
2018-07-28T00:01:00.727Z,929.34
2018-07-28T00:02:32.299Z,929.36
2018-07-28T00:04:03.971Z,929.39
2018-07-28T00:05:35.442Z,929.39
2018-07-28T00:07:07.015Z,929.38
2018-07-28T00:08:38.586Z,929.36
2018-07-28T00:10:10.158Z,929.31
2018-07-28T00:11:41.730Z,929.33
2018-07-28T00:13:13.302Z,929.35
2018-07-28T00:14:44.876Z,929.35
2018-07-28T00:16:16.553Z,929.34
2018-07-28T00:17:48.019Z,929.36
2018-07-28T00:19:19.590Z,929.36
2018-07-28T00:20:51.161Z,929.39
2018-07-28T00:22:22.836Z,929.40
2018-07-28T00:23:54.308Z,929.44
2018-07-28T00:25:25.876Z,929.47
2018-07-28T00:26:57.452Z,929.45
2018-07-28T00:28:29.020Z,929.49
2018-07-28T00:30:00.591Z,929.47
2018-07-28T00:31:32.163Z,929.51
2018-07-28T00:33:03.736Z,929.58
2018-07-28T00:34:35.907Z,929.62
2018-07-28T00:36:06.878Z,929.60
2018-07-28T00:37:38.449Z,929.65
2018-07-28T00:39:10.021Z,929.67
2018-07-28T00:40:41.593Z,929.66
2018-07-28T00:42:13.163Z,929.65
2018-07-28T00:43:44.739Z,929.69
2018-07-28T00:45:16.307Z,929.64
2018-07-28T00:46:47.878Z,929.66
2018-07-28T00:48:19.452Z,929.66
2018-07-28T00:49:51.024Z,929.70
2018-07-28T00:51:22.592Z,929.71
2018-07-28T00:52:54.265Z,929.72
2018-07-28T00:54:25.736Z,929.79
2018-07-28T00:55:57.307Z,929.81
2018-07-28T00:57:28.879Z,929.83
2018-07-28T00:59:00.550Z,929.82
2018-07-28T01:00:32.023Z,929.81
2018-07-28T01:02:03.593Z,929.86
2018-07-28T01:03:35.165Z,929.90
2018-07-28T01:05:06.841Z,929.89
2018-07-28T01:06:38.308Z,929.89
2018-07-28T01:08:09.880Z,929.90
2018-07-28T01:09:41.451Z,929.89
2018-07-28T01:11:13.123Z,929.90
2018-07-28T01:12:44.595Z,929.90
2018-07-28T01:14:16.166Z,929.91
2018-07-28T01:15:48.042Z,929.87
2018-07-28T01:17:19.309Z,929.90
2018-07-28T01:18:50.881Z,929.92
2018-07-28T01:20:22.452Z,929.90
2018-07-28T01:21:54.024Z,929.89
2018-07-28T01:23:25.596Z,929.94
2018-07-28T01:24:57.167Z,929.95
2018-07-28T01:26:28.739Z,929.95
2018-07-28T01:28:00.311Z,929.90
2018-07-28T01:29:31.982Z,929.88
2018-07-28T01:31:03.456Z,929.86
2018-07-28T01:32:35.028Z,929.90
2018-07-28T01:34:06.597Z,929.89
2018-07-28T01:35:38.268Z,929.91
2018-07-28T01:37:09.810Z,929.94
2018-07-28T01:38:41.382Z,929.91
2018-07-28T01:40:12.954Z,929.94
2018-07-28T01:41:44.625Z,929.89
2018-07-28T01:43:16.027Z,929.89
2018-07-28T01:44:47.597Z,929.91
2018-07-28T01:46:19.169Z,929.92
2018-07-28T01:47:50.844Z,929.96
2018-07-28T01:49:22.359Z,929.95
2018-07-28T01:50:53.882Z,929.94
2018-07-28T01:52:25.454Z,929.92
2018-07-28T01:53:57.035Z,929.93
2018-07-28T01:55:28.597Z,929.96
2018-07-28T01:57:00.168Z,929.90
2018-07-28T01:58:31.742Z,929.93
2018-07-28T02:00:03.311Z,929.98
2018-07-28T02:01:34.883Z,929.98
2018-07-28T02:03:06.454Z,929.98
2018-07-28T02:04:38.551Z,929.92
2018-07-28T02:06:09.796Z,929.90
2018-07-28T02:07:41.167Z,929.88
2018-07-28T02:09:12.739Z,929.85
2018-07-28T02:10:44.310Z,929.84
2018-07-28T02:12:15.879Z,929.87
2018-07-28T02:13:47.450Z,929.84
2018-07-28T02:15:19.022Z,929.86
2018-07-28T02:16:50.597Z,929.87
2018-07-28T02:18:22.163Z,929.86
2018-07-28T02:19:53.736Z,929.84
2018-07-28T02:21:25.305Z,929.85
2018-07-28T02:22:56.889Z,929.89
2018-07-28T02:24:28.547Z,929.89
2018-07-28T02:26:00.035Z,929.91
2018-07-28T02:27:31.589Z,929.89
2018-07-28T02:29:03.160Z,929.88
2018-07-28T02:30:34.730Z,929.83
2018-07-28T02:32:06.301Z,929.86
2018-07-28T02:33:37.872Z,929.89
2018-07-28T02:35:09.454Z,929.88
2018-07-28T02:36:41.122Z,929.88
2018-07-28T02:38:12.584Z,929.82
2018-07-28T02:39:44.155Z,929.84
2018-07-28T02:41:15.727Z,929.78
2018-07-28T02:42:47.406Z,929.81
2018-07-28T02:44:18.868Z,929.83
2018-07-28T02:45:50.440Z,929.82
2018-07-28T02:47:22.011Z,929.84
2018-07-28T02:48:53.580Z,929.83
2018-07-28T02:50:25.154Z,929.81
2018-07-28T02:51:56.721Z,929.79
2018-07-28T02:53:28.293Z,929.80
2018-07-28T02:54:59.862Z,929.75
2018-07-28T02:56:31.434Z,929.79
2018-07-28T02:58:03.003Z,929.77
2018-07-28T02:59:34.574Z,929.73
2018-07-28T03:01:06.245Z,929.75
2018-07-28T03:02:37.715Z,929.70
2018-07-28T03:04:09.286Z,929.71
2018-07-28T03:05:40.857Z,929.67
2018-07-28T03:07:12.528Z,929.64
2018-07-28T03:08:43.998Z,929.64
2018-07-28T03:10:15.568Z,929.62
2018-07-28T03:11:47.138Z,929.62
2018-07-28T03:13:18.709Z,929.60
2018-07-28T03:14:50.281Z,929.59
2018-07-28T03:16:21.860Z,929.55
2018-07-28T03:17:53.421Z,929.57
2018-07-28T03:19:25.090Z,929.55
2018-07-28T03:20:56.561Z,929.54
2018-07-28T03:22:28.131Z,929.52
2018-07-28T03:23:59.702Z,929.46
2018-07-28T03:25:31.275Z,929.46
2018-07-28T03:27:02.843Z,929.45
2018-07-28T03:28:34.413Z,929.41
2018-07-28T03:30:05.984Z,929.42
2018-07-28T03:31:37.655Z,929.42
2018-07-28T03:33:09.124Z,929.46
2018-07-28T03:34:40.697Z,929.46
2018-07-28T03:36:12.265Z,929.47
2018-07-28T03:37:44.036Z,929.47
2018-07-28T03:39:15.406Z,929.45
2018-07-28T03:40:46.980Z,929.52
2018-07-28T03:42:18.546Z,929.48
2018-07-28T03:43:50.117Z,929.50
2018-07-28T03:45:21.687Z,929.44
2018-07-28T03:46:53.257Z,929.43
2018-07-28T03:48:24.829Z,929.45
2018-07-28T03:49:56.398Z,929.41
2018-07-28T03:51:27.969Z,929.42
2018-07-28T03:52:59.539Z,929.38
2018-07-28T03:54:31.109Z,929.36
2018-07-28T03:56:02.779Z,929.34
2018-07-28T03:57:34.311Z,929.37
2018-07-28T03:59:05.819Z,929.33
2018-07-28T04:00:37.391Z,929.37
2018-07-28T04:02:08.961Z,929.34
2018-07-28T04:03:40.530Z,929.30
2018-07-28T04:05:12.100Z,929.27
2018-07-28T04:06:43.671Z,929.29
2018-07-28T04:08:15.341Z,929.24
2018-07-28T04:09:46.812Z,929.22
2018-07-28T04:11:18.382Z,929.23
2018-07-28T04:12:49.951Z,929.24
2018-07-28T04:14:21.641Z,929.20
2018-07-28T04:15:53.095Z,929.19
2018-07-28T04:17:25.214Z,929.16
2018-07-28T04:18:56.237Z,929.19
2018-07-28T04:20:27.803Z,929.18
2018-07-28T04:21:59.375Z,929.15
2018-07-28T04:23:30.944Z,929.14
2018-07-28T04:25:02.515Z,929.11
2018-07-28T04:26:34.086Z,929.06
2018-07-28T04:28:05.655Z,929.11
2018-07-28T04:29:37.302Z,929.05
2018-07-28T04:31:08.802Z,929.06
2018-07-28T04:32:40.566Z,929.09
2018-07-28T04:34:11.947Z,929.02
2018-07-28T04:35:43.507Z,929.09
2018-07-28T04:37:15.083Z,929.10
2018-07-28T04:38:46.753Z,929.07
2018-07-28T04:40:18.219Z,929.08
2018-07-28T04:41:49.789Z,929.05
2018-07-28T04:43:21.359Z,929.07
2018-07-28T04:44:52.938Z,929.08
2018-07-28T04:46:24.500Z,929.08
2018-07-28T04:47:56.071Z,929.07
2018-07-28T04:49:27.642Z,929.03
2018-07-28T04:50:59.312Z,929.01
2018-07-28T04:52:30.784Z,928.94
2018-07-28T04:54:02.358Z,928.92
2018-07-28T04:55:33.924Z,928.92
2018-07-28T04:57:05.495Z,928.93
2018-07-28T04:58:37.065Z,928.92
2018-07-28T05:00:08.636Z,928.91
2018-07-28T05:01:40.206Z,928.92
2018-07-28T05:03:11.778Z,928.91
2018-07-28T05:04:43.347Z,928.87
2018-07-28T05:06:14.918Z,928.86
2018-07-28T05:07:46.489Z,928.82
2018-07-28T05:09:18.309Z,928.74
2018-07-28T05:10:49.630Z,928.71
2018-07-28T05:12:21.200Z,928.64
2018-07-28T05:13:52.770Z,928.64
2018-07-28T05:15:24.347Z,928.61
2018-07-28T05:16:55.912Z,928.68
2018-07-28T05:18:27.481Z,928.74
2018-07-28T05:19:59.052Z,928.79
2018-07-28T05:21:30.623Z,928.79
2018-07-28T05:23:02.195Z,928.82
2018-07-28T05:24:33.763Z,928.76
2018-07-28T05:26:05.336Z,928.72
2018-07-28T05:27:37.006Z,928.72
2018-07-28T05:29:08.478Z,928.76
2018-07-28T05:30:40.046Z,928.74
2018-07-28T05:32:11.620Z,928.75
2018-07-28T05:33:43.287Z,928.71
2018-07-28T05:35:14.757Z,928.76
2018-07-28T05:36:46.327Z,928.76
2018-07-28T05:38:17.898Z,928.74
2018-07-28T05:39:49.574Z,928.76
2018-07-28T05:41:21.038Z,928.77
2018-07-28T05:42:52.610Z,928.77
2018-07-28T05:44:24.180Z,928.77
2018-07-28T05:45:55.850Z,928.78
2018-07-28T05:47:27.320Z,928.76
2018-07-28T05:48:58.890Z,928.81
2018-07-28T05:50:30.462Z,928.83
2018-07-28T05:52:02.034Z,928.82
2018-07-28T05:53:33.602Z,928.84
2018-07-28T05:55:05.172Z,928.80
2018-07-28T05:56:36.742Z,928.77
2018-07-28T05:58:08.413Z,928.79
2018-07-28T05:59:39.883Z,928.75
2018-07-28T06:01:11.453Z,928.75
2018-07-28T06:02:43.029Z,928.78
2018-07-28T06:04:14.944Z,928.81
2018-07-28T06:05:46.164Z,928.78
2018-07-28T06:07:17.737Z,928.78
2018-07-28T06:08:49.305Z,928.84
2018-07-28T06:10:20.975Z,928.81
2018-07-28T06:11:52.445Z,928.79
2018-07-28T06:13:24.015Z,928.84
2018-07-28T06:14:55.585Z,928.84
2018-07-28T06:16:27.156Z,928.86
2018-07-28T06:17:58.736Z,928.83
2018-07-28T06:19:30.302Z,928.88
2018-07-28T06:21:01.868Z,928.88
2018-07-28T06:22:33.537Z,928.89
2018-07-28T06:24:05.007Z,928.90
2018-07-28T06:25:36.578Z,928.89
2018-07-28T06:27:08.148Z,928.95
2018-07-28T06:28:39.718Z,928.93
2018-07-28T06:30:11.289Z,928.90
2018-07-28T06:31:42.967Z,928.90
2018-07-28T06:33:14.433Z,928.86
2018-07-28T06:34:46.099Z,928.87
2018-07-28T06:36:17.569Z,928.91
2018-07-28T06:37:49.139Z,928.95
2018-07-28T06:39:20.713Z,928.93
2018-07-28T06:40:52.481Z,928.95
2018-07-28T06:42:23.850Z,928.95
2018-07-28T06:43:55.421Z,928.90
2018-07-28T06:45:26.991Z,928.94
2018-07-28T06:46:58.563Z,928.93
2018-07-28T06:48:30.135Z,928.95
2018-07-28T06:50:01.701Z,928.94
2018-07-28T06:51:33.271Z,928.96
2018-07-28T06:53:04.841Z,928.97
2018-07-28T06:54:36.412Z,929.02
2018-07-28T06:56:07.981Z,928.97
2018-07-28T06:57:39.552Z,928.90
2018-07-28T06:59:11.322Z,928.94
2018-07-28T07:00:42.697Z,928.94
2018-07-28T07:02:14.262Z,928.96
2018-07-28T07:03:45.833Z,928.95
2018-07-28T07:05:17.653Z,928.93
2018-07-28T07:06:48.972Z,928.93
2018-07-28T07:08:20.542Z,928.92
2018-07-28T07:09:52.113Z,928.95
2018-07-28T07:11:23.783Z,928.92
2018-07-28T07:12:55.253Z,928.91
2018-07-28T07:14:26.823Z,928.88
2018-07-28T07:15:58.408Z,928.90
2018-07-28T07:17:30.064Z,928.86
2018-07-28T07:19:01.534Z,928.85
2018-07-28T07:20:33.104Z,928.80
2018-07-28T07:22:04.675Z,928.79
2018-07-28T07:23:36.246Z,928.80
2018-07-28T07:25:07.815Z,928.77
2018-07-28T07:26:39.385Z,928.81
2018-07-28T07:28:10.955Z,928.83
2018-07-28T07:29:42.627Z,928.78
2018-07-28T07:31:14.096Z,928.80
2018-07-28T07:32:45.665Z,928.80
2018-07-28T07:34:17.236Z,928.80
2018-07-28T07:35:49.407Z,928.83
2018-07-28T07:37:20.376Z,928.80
2018-07-28T07:38:51.946Z,928.79
2018-07-28T07:40:23.516Z,928.85
2018-07-28T07:41:55.187Z,928.76
2018-07-28T07:43:26.657Z,928.77
2018-07-28T07:44:58.227Z,928.74
2018-07-28T07:46:29.797Z,928.70
2018-07-28T07:48:01.468Z,928.71
2018-07-28T07:49:32.939Z,928.69
2018-07-28T07:51:04.508Z,928.70
2018-07-28T07:52:36.086Z,928.69
2018-07-28T07:54:07.748Z,928.75
2018-07-28T07:55:39.218Z,928.74
2018-07-28T07:57:10.788Z,928.68
2018-07-28T07:58:42.358Z,928.67
2018-07-28T08:00:14.028Z,928.69
2018-07-28T08:01:45.498Z,928.71
2018-07-28T08:03:17.068Z,928.62
2018-07-28T08:04:48.686Z,928.56
2018-07-28T08:06:20.483Z,928.55
2018-07-28T08:07:51.780Z,928.60
2018-07-28T08:09:23.348Z,928.62
2018-07-28T08:10:54.918Z,928.61
2018-07-28T08:12:26.688Z,928.64
2018-07-28T08:13:58.058Z,928.59
2018-07-28T08:15:29.628Z,928.59
2018-07-28T08:17:01.198Z,928.59
2018-07-28T08:18:32.768Z,928.60
2018-07-28T08:20:04.338Z,928.59
2018-07-28T08:21:35.907Z,928.57
2018-07-28T08:23:07.477Z,928.59
2018-07-28T08:24:39.048Z,928.55
2018-07-28T08:26:10.617Z,928.59
2018-07-28T08:27:42.188Z,928.61
2018-07-28T08:29:13.757Z,928.65
2018-07-28T08:30:45.527Z,928.65
2018-07-28T08:32:16.897Z,928.69
2018-07-28T08:33:48.467Z,928.64
2018-07-28T08:35:20.039Z,928.62
2018-07-28T08:36:51.607Z,928.63
2018-07-28T08:38:23.176Z,928.63
2018-07-28T08:39:54.813Z,928.75
2018-07-28T08:41:26.316Z,928.75
2018-07-28T08:42:57.988Z,928.82
2018-07-28T08:44:29.459Z,928.80
2018-07-28T08:46:01.029Z,928.84
2018-07-28T08:47:32.596Z,928.88
2018-07-28T08:49:04.427Z,928.92
2018-07-28T08:50:35.736Z,928.89
2018-07-28T08:52:07.307Z,928.88
2018-07-28T08:53:38.875Z,928.87
2018-07-28T08:55:10.446Z,928.84
2018-07-28T08:56:42.016Z,928.88
2018-07-28T08:58:13.586Z,928.89
2018-07-28T08:59:45.155Z,928.89
2018-07-28T09:01:16.825Z,928.92
2018-07-28T09:02:48.296Z,928.92
2018-07-28T09:04:19.864Z,928.88
2018-07-28T09:05:51.495Z,928.93
2018-07-28T09:07:23.355Z,928.96
2018-07-28T09:08:54.574Z,928.95
2018-07-28T09:10:26.145Z,928.97
2018-07-28T09:11:57.714Z,929.04
2018-07-28T09:13:29.383Z,929.03
2018-07-28T09:15:00.853Z,929.04
2018-07-28T09:16:32.506Z,929.11
2018-07-28T09:18:04.081Z,929.09
2018-07-28T09:19:35.562Z,929.17
2018-07-28T09:21:07.132Z,929.14
2018-07-28T09:22:38.782Z,929.08
2018-07-28T09:24:10.271Z,929.14
2018-07-28T09:25:41.940Z,929.16
2018-07-28T09:27:13.410Z,929.18
2018-07-28T09:28:44.980Z,929.16
2018-07-28T09:30:16.550Z,929.19
2018-07-28T09:31:48.119Z,929.24
2018-07-28T09:33:19.690Z,929.28
2018-07-28T09:34:51.259Z,929.27
2018-07-28T09:36:22.828Z,929.26
2018-07-28T09:37:54.499Z,929.17
2018-07-28T09:39:25.968Z,929.24
2018-07-28T09:40:57.539Z,929.29
2018-07-28T09:42:29.108Z,929.34
2018-07-28T09:44:00.878Z,929.40
2018-07-28T09:45:32.247Z,929.43
2018-07-28T09:47:03.883Z,929.43
2018-07-28T09:48:35.913Z,929.46
2018-07-28T09:50:06.956Z,929.48
2018-07-28T09:51:38.526Z,929.54
2018-07-28T09:56:13.269Z,929.55
2018-07-28T09:57:44.806Z,929.57
2018-07-28T09:59:16.377Z,929.58
2018-07-28T10:00:48.677Z,929.56
2018-07-28T10:02:20.345Z,929.59
2018-07-28T10:03:51.085Z,929.63
2018-07-28T10:05:22.682Z,929.62
2018-07-28T10:06:54.228Z,929.61
2018-07-28T10:09:57.893Z,929.73
2018-07-28T10:11:28.939Z,929.75
2018-07-28T10:13:00.509Z,929.75
2018-07-28T10:16:03.750Z,929.72
2018-07-28T10:19:06.802Z,929.72
2018-07-28T10:20:38.365Z,929.71
2018-07-28T10:22:10.037Z,929.75
2018-07-28T10:23:42.035Z,929.77
2018-07-28T10:25:13.280Z,929.78
2018-07-28T10:26:44.648Z,929.81
2018-07-28T10:28:16.220Z,929.79
2018-07-28T10:31:19.365Z,929.82
2018-07-28T10:32:50.938Z,929.87
2018-07-28T10:34:22.509Z,929.87
2018-07-28T10:35:54.083Z,929.84
2018-07-28T10:37:25.656Z,929.88
2018-07-28T10:38:57.226Z,929.91
2018-07-28T10:40:28.901Z,929.81
2018-07-28T10:43:32.251Z,929.73
2018-07-28T10:45:03.521Z,929.74
2018-07-28T10:46:35.194Z,929.77
2018-07-28T10:48:07.195Z,929.78
2018-07-28T10:49:38.242Z,929.81
2018-07-28T10:51:10.342Z,929.83
2018-07-28T10:52:41.694Z,929.83
2018-07-28T10:54:12.962Z,929.83
2018-07-28T10:55:44.537Z,929.87
2018-07-28T10:57:16.416Z,929.85
2018-07-28T11:01:50.942Z,929.93
2018-07-28T11:03:22.418Z,929.98
2018-07-28T11:04:53.988Z,930.02
2018-07-28T11:06:25.761Z,930.03
2018-07-28T11:07:57.664Z,930.04
2018-07-28T11:09:28.709Z,930.13
2018-07-28T11:11:00.283Z,930.13
2018-07-28T11:12:31.859Z,930.11
2018-07-28T11:14:03.887Z,930.15
2018-07-28T11:17:06.588Z,930.16
2018-07-28T11:18:38.168Z,930.15
2018-07-28T11:20:10.143Z,930.17
2018-07-28T11:21:41.517Z,930.13
2018-07-28T11:23:12.892Z,930.15
2018-07-28T11:24:44.467Z,930.23
2018-07-28T11:26:16.317Z,930.22
2018-07-28T11:27:47.622Z,930.26
2018-07-28T11:29:19.198Z,930.32
2018-07-28T11:30:50.775Z,930.32
2018-07-28T11:32:22.352Z,930.32
2018-07-28T11:33:53.931Z,930.32
2018-07-28T11:35:25.811Z,930.37
2018-07-28T11:36:57.095Z,930.35
2018-07-28T11:38:28.964Z,930.39
2018-07-28T11:40:00.542Z,930.40
2018-07-28T11:43:03.393Z,930.38
2018-07-28T11:44:35.950Z,930.35
2018-07-28T11:46:06.549Z,930.31
2018-07-28T11:47:38.127Z,930.26
2018-07-28T11:50:41.284Z,930.32
2018-07-28T11:52:12.861Z,930.33
2018-07-28T11:53:44.642Z,930.34
2018-07-28T11:55:16.017Z,930.36
2018-07-28T11:56:47.898Z,930.40
2018-07-28T11:59:51.070Z,930.43
2018-07-28T12:01:22.333Z,930.44
2018-07-28T12:02:53.911Z,930.41
2018-07-28T12:04:26.016Z,930.42
2018-07-28T12:05:57.069Z,930.43
2018-07-28T12:07:29.177Z,930.45
2018-07-28T12:09:00.227Z,930.47
2018-07-28T12:13:34.965Z,930.52
2018-07-28T12:15:07.171Z,930.56
2018-07-28T12:18:09.912Z,930.57
2018-07-28T12:19:41.282Z,930.53
2018-07-28T12:21:13.167Z,930.60
2018-07-28T12:22:44.443Z,930.62
2018-07-28T12:24:16.226Z,930.66
2018-07-28T12:27:19.182Z,930.63
2018-07-28T12:28:50.766Z,930.64
2018-07-28T12:30:22.868Z,930.64
2018-07-28T12:31:53.923Z,930.62
2018-07-28T12:33:25.602Z,930.64
2018-07-28T12:34:57.352Z,930.64
2018-07-28T12:36:28.666Z,930.64
2018-07-28T12:38:00.446Z,930.65
2018-07-28T12:39:32.354Z,930.70
2018-07-28T12:41:03.645Z,930.71
2018-07-28T12:42:34.987Z,930.68
2018-07-28T12:44:06.569Z,930.67
2018-07-28T12:47:09.830Z,930.69
2018-07-28T12:48:41.312Z,930.70
2018-07-28T12:50:12.893Z,930.68
2018-07-28T12:54:47.835Z,930.64
2018-07-28T12:56:19.326Z,930.59
2018-07-28T12:57:50.798Z,930.61
2018-07-28T13:00:53.962Z,930.62
2018-07-28T13:02:25.544Z,930.60
2018-07-28T13:03:57.199Z,930.55
2018-07-28T13:07:00.291Z,930.54
2018-07-28T13:08:32.196Z,930.61
2018-07-28T13:11:35.036Z,930.52
2018-07-28T13:13:06.721Z,930.51
2018-07-28T13:14:38.199Z,930.53
2018-07-28T13:16:09.782Z,930.50
2018-07-28T13:17:41.571Z,930.42
2018-07-28T13:20:44.532Z,930.53
2018-07-28T13:22:16.113Z,930.50
2018-07-28T13:23:48.521Z,930.55
2018-07-28T13:26:50.859Z,930.48
2018-07-28T13:28:22.443Z,930.56
2018-07-28T13:32:57.292Z,930.41
2018-07-28T13:34:28.774Z,930.30
2018-07-28T13:36:00.367Z,930.38
2018-07-28T13:37:31.945Z,930.29
2018-07-28T13:39:04.048Z,930.16
2018-07-28T13:40:35.104Z,930.31
2018-07-28T13:42:06.735Z,930.31
2018-07-28T13:43:38.268Z,930.34
2018-07-28T13:45:10.680Z,930.40
2018-07-28T13:46:41.636Z,930.40
2018-07-28T13:48:13.015Z,930.23
2018-07-28T13:51:16.909Z,930.23
2018-07-28T13:55:50.929Z,930.46
2018-07-28T14:01:57.563Z,930.15
2018-07-28T14:03:28.845Z,930.21
2018-07-28T14:05:00.632Z,930.24
2018-07-28T14:06:32.011Z,930.17
2018-07-28T14:08:04.147Z,930.21
2018-07-28T14:09:35.175Z,930.15
2018-07-28T14:11:07.285Z,930.08
2018-07-28T14:12:38.544Z,930.02
2018-07-28T14:14:09.925Z,930.14
2018-07-28T14:15:42.052Z,930.15
2018-07-28T14:17:13.095Z,930.10
2018-07-28T14:20:16.260Z,929.98
2018-07-28T14:21:47.842Z,929.91
2018-07-28T14:23:19.432Z,929.85
2018-07-28T14:24:51.647Z,929.85
2018-07-28T14:26:22.693Z,929.88
2018-07-28T14:27:54.176Z,929.86
2018-07-28T14:32:29.026Z,929.77
2018-07-28T14:34:00.509Z,929.82
2018-07-28T14:37:03.877Z,929.80
2018-07-28T14:40:06.849Z,929.65
2018-07-28T14:43:10.015Z,929.66
2018-07-28T14:44:41.800Z,929.59
2018-07-28T14:46:13.377Z,929.56
2018-07-28T14:47:44.760Z,929.51
2018-07-28T14:49:16.343Z,929.45
2018-07-28T14:50:48.259Z,929.51
2018-07-28T14:52:19.512Z,929.46
2018-07-28T14:53:51.095Z,929.43
2018-07-28T14:55:22.679Z,929.41
2018-07-28T14:56:54.786Z,929.39
2018-07-28T14:58:26.048Z,929.40
2018-07-28T14:59:57.955Z,929.38
2018-07-28T15:01:29.021Z,929.31
2018-07-28T15:03:00.808Z,929.27
2018-07-28T15:04:32.383Z,929.34
2018-07-28T15:07:35.563Z,929.34
2018-07-28T15:09:06.994Z,929.33
2018-07-28T15:10:38.723Z,929.31
2018-07-28T15:12:10.106Z,929.24
2018-07-28T15:13:41.694Z,929.27
2018-07-28T15:15:13.800Z,929.13
2018-07-28T15:18:16.696Z,929.10
2018-07-28T15:19:48.639Z,929.07
2018-07-28T15:21:19.617Z,929.02
2018-07-28T15:22:51.200Z,929.03
2018-07-28T15:24:23.432Z,929.05
2018-07-28T15:25:54.370Z,929.03
2018-07-28T15:30:29.133Z,928.88
2018-07-28T15:32:00.730Z,928.88
2018-07-28T15:33:32.335Z,928.95
2018-07-28T15:36:35.871Z,928.92
2018-07-28T15:38:07.052Z,928.85
2018-07-28T15:39:38.948Z,928.78
2018-07-28T15:42:41.910Z,928.79
2018-07-28T15:44:13.394Z,928.70
2018-07-28T15:45:46.112Z,928.68
2018-07-28T15:48:48.149Z,928.56
2018-07-28T15:50:19.733Z,928.60
2018-07-28T15:51:51.319Z,928.59
2018-07-28T15:53:22.903Z,928.55
2018-07-28T15:54:54.489Z,928.51
2018-07-28T15:56:26.376Z,928.42
2018-07-28T15:57:57.658Z,928.43
2018-07-28T15:59:29.445Z,928.34
2018-07-28T16:01:00.928Z,928.32
2018-07-28T16:02:32.414Z,928.37
2018-07-28T16:04:03.999Z,928.35
2018-07-28T16:05:36.108Z,928.30
2018-07-28T16:07:07.472Z,928.23
2018-07-28T16:08:38.758Z,928.26
2018-07-28T16:10:10.342Z,928.24
2018-07-28T16:13:13.510Z,928.19
2018-07-28T16:14:45.095Z,928.22
2018-07-28T16:16:16.682Z,928.12
2018-07-28T16:20:51.993Z,928.13
2018-07-28T16:22:23.554Z,928.21
2018-07-28T16:23:54.614Z,928.15
2018-07-28T16:25:26.193Z,928.16
2018-07-28T16:26:57.779Z,928.07
2018-07-28T16:30:00.950Z,928.11
2018-07-28T16:34:35.705Z,928.05
2018-07-28T16:36:07.291Z,928.07
2018-07-28T16:37:38.876Z,927.94
2018-07-28T16:39:10.984Z,928.03
2018-07-28T16:40:42.762Z,927.96
2018-07-28T16:42:14.190Z,927.99
2018-07-28T16:43:45.418Z,927.94
2018-07-28T16:45:16.804Z,927.91
2018-07-28T16:46:48.389Z,927.83
2018-07-28T16:48:20.275Z,927.87
2018-07-28T16:49:51.861Z,927.90
2018-07-28T16:51:23.175Z,927.79
2018-07-28T16:52:55.456Z,927.78
2018-07-28T16:54:26.318Z,927.80
2018-07-28T16:57:29.483Z,927.81
2018-07-28T16:59:01.183Z,927.80
2018-07-28T17:00:32.653Z,927.69
2018-07-28T17:02:04.238Z,927.76
2018-07-28T17:03:36.025Z,927.71
2018-07-28T17:05:07.410Z,927.74
2018-07-28T17:06:38.994Z,927.68
2018-07-28T17:08:11.099Z,927.61
2018-07-28T17:09:42.160Z,927.59
2018-07-28T17:11:13.747Z,927.64
2018-07-28T17:12:45.331Z,927.51
2018-07-28T17:14:16.917Z,927.52
2018-07-28T17:15:48.503Z,927.45
2018-07-28T17:17:20.187Z,927.44
2018-07-28T17:18:52.196Z,927.41
2018-07-28T17:21:54.842Z,927.41
2018-07-28T17:24:58.014Z,927.34
2018-07-28T17:26:29.901Z,927.35
2018-07-28T17:28:01.181Z,927.35
2018-07-28T17:29:33.272Z,927.34
2018-07-28T17:31:04.487Z,927.30
2018-07-28T17:32:36.239Z,927.26
2018-07-28T17:38:42.876Z,927.14
2018-07-28T17:43:17.029Z,927.11
2018-07-28T17:44:48.612Z,927.08
2018-07-28T17:46:20.399Z,927.07
2018-07-28T17:47:51.986Z,926.99
2018-07-28T17:50:54.950Z,927.01
2018-07-28T17:52:26.534Z,926.94
2018-07-28T17:53:59.247Z,926.98
2018-07-28T17:55:29.707Z,927.04
2018-07-28T17:57:01.387Z,927.09
2018-07-28T17:58:33.374Z,927.00
2018-07-28T18:00:04.531Z,927.03
2018-07-28T18:01:36.041Z,926.99
2018-07-28T18:03:07.926Z,927.02
2018-07-28T18:06:10.991Z,926.92
2018-07-28T18:09:13.956Z,926.85
2018-07-28T18:10:45.844Z,926.83
2018-07-28T18:12:17.125Z,926.81
2018-07-28T18:13:48.710Z,926.76
2018-07-28T18:15:20.393Z,926.76
2018-07-28T18:18:23.462Z,926.76
2018-07-28T18:19:55.975Z,926.76
2018-07-28T18:21:26.881Z,926.74
2018-07-28T18:22:58.216Z,926.71
2018-07-28T18:26:01.387Z,926.62
2018-07-28T18:27:32.967Z,926.64
2018-07-28T18:29:04.552Z,926.59
2018-07-28T18:30:36.136Z,926.59
2018-07-28T18:32:07.923Z,926.55
2018-07-28T18:33:39.807Z,926.49
2018-07-28T18:35:10.885Z,926.52
2018-07-28T18:36:42.991Z,926.49
2018-07-28T18:38:14.052Z,926.50
2018-07-28T18:39:45.667Z,926.49
2018-07-28T18:41:17.420Z,926.48
2018-07-28T18:42:48.803Z,926.49
2018-07-28T18:44:20.587Z,926.46
2018-07-28T18:45:51.969Z,926.49
2018-07-28T18:47:23.553Z,926.44
2018-07-28T18:48:55.219Z,926.46
2018-07-28T18:50:26.719Z,926.44
2018-07-28T18:51:58.610Z,926.42
2018-07-28T18:53:29.886Z,926.42
2018-07-28T18:55:01.489Z,926.43
2018-07-28T18:56:33.056Z,926.41
2018-07-28T18:58:04.737Z,926.39
2018-07-28T18:59:36.220Z,926.42
2018-07-28T19:01:07.803Z,926.42
2018-07-28T19:02:39.386Z,926.41
2018-07-28T19:04:11.271Z,926.43
2018-07-28T19:05:42.856Z,926.42
2018-07-28T19:07:14.135Z,926.39
2018-07-28T19:08:45.920Z,926.36
2018-07-28T19:10:17.402Z,926.34
2018-07-28T19:11:49.229Z,926.38
2018-07-28T19:16:23.634Z,926.36
2018-07-28T19:17:55.215Z,926.37
2018-07-28T19:20:58.682Z,926.37
2018-07-28T19:22:30.166Z,926.33
2018-07-28T19:24:01.848Z,926.35
2018-07-28T19:25:33.650Z,926.32
2018-07-28T19:27:04.709Z,926.37
2018-07-28T19:30:07.973Z,926.34
2018-07-28T19:31:39.455Z,926.38
2018-07-28T19:33:11.037Z,926.34
2018-07-28T19:34:42.617Z,926.33
2018-07-28T19:36:14.300Z,926.34
2018-07-28T19:39:17.362Z,926.33
2018-07-28T19:40:48.945Z,926.35
2018-07-28T19:42:20.626Z,926.33
2018-07-28T19:45:23.689Z,926.34
2018-07-28T19:48:26.951Z,926.37
2018-07-28T19:49:58.432Z,926.36
2018-07-28T19:51:30.015Z,926.30
2018-07-28T19:53:01.595Z,926.30
2018-07-28T19:54:33.175Z,926.33
2018-07-28T19:56:04.759Z,926.32
2018-07-28T19:59:07.917Z,926.37
2018-07-28T20:00:39.600Z,926.44
2018-07-28T20:02:11.077Z,926.46
2018-07-28T20:03:42.659Z,926.50
2018-07-28T20:05:14.239Z,926.44
2018-07-28T20:08:17.803Z,926.50
2018-07-28T20:09:48.979Z,926.49
2018-07-28T20:11:20.559Z,926.52
2018-07-28T20:14:23.922Z,926.45
2018-07-28T20:15:55.298Z,926.44
2018-07-28T20:17:26.877Z,926.45
2018-07-28T20:18:58.457Z,926.49
2018-07-28T20:20:30.343Z,926.41
2018-07-28T20:23:33.195Z,926.39
2018-07-28T20:25:04.774Z,926.40
2018-07-28T20:26:36.463Z,926.39
2018-07-28T20:28:07.935Z,926.40
2018-07-28T20:31:11.090Z,926.42
2018-07-28T20:32:42.773Z,926.39
2018-07-28T20:34:14.246Z,926.39
2018-07-28T20:35:46.348Z,926.36
2018-07-28T20:37:17.404Z,926.41
2018-07-28T20:38:49.082Z,926.50
2018-07-28T20:40:20.561Z,926.49
2018-07-28T20:41:52.179Z,926.49
2018-07-28T20:43:23.716Z,926.50
2018-07-28T20:44:55.393Z,926.52
2018-07-28T20:46:26.870Z,926.51
2018-07-28T20:47:58.450Z,926.52
2018-07-28T20:49:30.025Z,926.51
2018-07-28T20:51:01.640Z,926.51
2018-07-28T20:52:33.179Z,926.54
2018-07-28T20:54:04.756Z,926.52
2018-07-28T20:55:36.332Z,926.57
2018-07-28T20:57:07.923Z,926.56
2018-07-28T20:58:39.486Z,926.58
2018-07-28T21:00:11.070Z,926.56